Bigbee, Mississippi
Current Conditions -  °F | °C
As of 10:55 AM on Saturday 22 Nov 2014 (Local Time) from KM40 Reporting Station
Few Clouds Few Clouds  
Wind Chill: 70°   Ceiling: Unl
Heat Index: 70°   Visibility: 9mi
Dew Point: 54°   Wind: 10mph
Humidity: 56%   Direction: 170°S
Pressure: 30.28"   Gusts: NA
Location:  33.9755°N, 88.4422°W
Report Text: KM40 221655Z AUTO 17009KT 9SM FEW120 21/12 A3028 RMK AO2
Loading
Personal Weather Stations






























Interactive Weather Map New forecast layout! Learn more

10-Day Weather Forecast

Advertisements
Track Severe Weather on mobile